createdAt,value
2022-08-25T00:01:50.945Z,69.55
2022-08-25T00:04:18.641Z,70.10
2022-08-25T00:06:45.679Z,69.95
2022-08-25T00:09:15.513Z,70.13
2022-08-25T00:11:43.065Z,70.15
2022-08-25T00:14:13.274Z,70.19
2022-08-25T00:16:57.272Z,69.86
2022-08-25T00:19:27.384Z,69.58
2022-08-25T00:21:56.208Z,70.10
2022-08-25T00:24:23.400Z,70.23
2022-08-25T00:26:54.879Z,69.84
2022-08-25T00:29:23.084Z,70.22
2022-08-25T00:31:49.599Z,69.69
2022-08-25T00:34:20.235Z,70.46
2022-08-25T00:36:47.191Z,70.38
2022-08-25T00:39:13.855Z,70.71
2022-08-25T00:41:43.132Z,70.75
2022-08-25T00:44:12.430Z,70.83
2022-08-25T00:46:44.983Z,70.37
2022-08-25T00:49:25.427Z,70.64
2022-08-25T00:52:01.207Z,70.18
2022-08-25T00:54:53.181Z,70.19
2022-08-25T00:57:34.174Z,70.66
2022-08-25T01:00:07.991Z,70.46
2022-08-25T01:02:34.414Z,70.28
2022-08-25T01:05:00.980Z,70.82
2022-08-25T01:07:27.418Z,71.36
2022-08-25T01:09:54.123Z,71.29
2022-08-25T01:12:21.434Z,70.79
2022-08-25T01:14:50.023Z,70.94
2022-08-25T01:17:16.862Z,71.46
2022-08-25T01:19:43.258Z,71.38
2022-08-25T01:22:12.271Z,71.52
2022-08-25T01:24:42.514Z,71.04
2022-08-25T01:27:10.348Z,71.20
2022-08-25T01:29:37.724Z,71.12
2022-08-25T01:32:07.618Z,71.74
2022-08-25T01:34:37.884Z,70.80
2022-08-25T01:37:05.088Z,71.25
2022-08-25T01:39:38.940Z,71.08
2022-08-25T01:42:29.021Z,71.01
2022-08-25T01:44:55.748Z,70.62
2022-08-25T01:47:22.493Z,70.61
2022-08-25T01:49:49.444Z,70.18
2022-08-25T01:52:31.925Z,69.93
2022-08-25T01:54:58.305Z,69.84
2022-08-25T01:57:24.753Z,69.92
2022-08-25T01:59:51.413Z,69.69
2022-08-25T02:02:18.455Z,70.61
2022-08-25T02:04:45.171Z,69.31
2022-08-25T02:07:11.538Z,69.58
2022-08-25T02:09:38.611Z,69.48
2022-08-25T02:12:05.834Z,69.50
2022-08-25T02:14:32.375Z,69.39
2022-08-25T02:16:58.794Z,69.36
2022-08-25T02:19:25.909Z,68.75
2022-08-25T02:21:52.614Z,68.95
2022-08-25T02:24:19.486Z,69.44
2022-08-25T02:26:45.911Z,69.12
2022-08-25T02:29:13.002Z,69.14
2022-08-25T02:31:39.716Z,69.30
2022-08-25T02:34:07.710Z,69.20
2022-08-25T02:36:34.581Z,68.85
2022-08-25T02:39:01.369Z,68.64
2022-08-25T02:41:31.632Z,68.91
2022-08-25T02:43:58.799Z,68.06
2022-08-25T02:46:25.296Z,68.31
2022-08-25T02:48:53.063Z,68.06
2022-08-25T02:51:21.981Z,67.66
2022-08-25T02:53:49.212Z,68.04
2022-08-25T02:56:18.160Z,67.38
2022-08-25T02:58:45.951Z,67.45
2022-08-25T03:01:13.071Z,66.92
2022-08-25T03:03:40.713Z,67.11
2022-08-25T03:06:10.838Z,65.90
2022-08-25T03:08:37.613Z,65.96
2022-08-25T03:11:05.019Z,66.11
2022-08-25T03:13:32.249Z,65.10
2022-08-25T03:16:03.497Z,64.38
2022-08-25T03:18:31.425Z,64.77
2022-08-25T03:20:59.066Z,64.43
2022-08-25T03:23:26.149Z,65.19
2022-08-25T03:26:14.814Z,64.69
2022-08-25T03:28:41.665Z,64.59
2022-08-25T03:31:08.782Z,64.01
2022-08-25T03:33:36.443Z,63.94
2022-08-25T03:36:03.415Z,63.96
2022-08-25T03:38:29.939Z,63.30
2022-08-25T03:40:56.352Z,63.83
2022-08-25T03:43:23.241Z,63.42
2022-08-25T03:45:49.806Z,62.62
2022-08-25T03:48:17.684Z,62.94
2022-08-25T03:50:50.587Z,62.85
2022-08-25T03:53:19.483Z,62.64
2022-08-25T03:55:45.944Z,62.67
2022-08-25T03:58:12.444Z,62.74
2022-08-25T04:00:39.840Z,62.36
2022-08-25T04:03:06.621Z,62.03
2022-08-25T04:05:33.516Z,61.90
2022-08-25T04:08:01.637Z,62.38
2022-08-25T04:10:28.739Z,62.05
2022-08-25T04:12:55.980Z,61.59
2022-08-25T04:15:22.810Z,61.82
2022-08-25T04:17:51.810Z,61.94
2022-08-25T04:20:18.851Z,62.33
2022-08-25T04:22:45.365Z,61.89
2022-08-25T04:25:12.416Z,61.34
2022-08-25T04:27:38.876Z,62.06
2022-08-25T04:30:06.628Z,61.47
2022-08-25T04:32:33.358Z,61.31
2022-08-25T04:34:59.909Z,61.16
2022-08-25T04:37:26.443Z,61.08
2022-08-25T04:39:52.921Z,61.26
2022-08-25T04:42:19.532Z,60.71
2022-08-25T04:44:45.891Z,60.40
2022-08-25T04:47:12.297Z,61.15
2022-08-25T04:49:38.652Z,61.11
2022-08-25T04:52:05.108Z,60.54
2022-08-25T04:54:39.697Z,60.28
2022-08-25T04:57:06.767Z,60.53
2022-08-25T04:59:33.472Z,61.29
2022-08-25T05:02:03.111Z,61.04
2022-08-25T05:04:30.709Z,60.43
2022-08-25T05:06:57.451Z,60.13
2022-08-25T05:09:25.170Z,60.02
2022-08-25T05:11:52.109Z,60.18
2022-08-25T05:14:21.618Z,59.83
2022-08-25T05:16:52.264Z,60.04
2022-08-25T05:19:19.070Z,59.35
2022-08-25T05:21:45.605Z,59.00
2022-08-25T05:24:12.091Z,59.67
2022-08-25T05:26:38.666Z,60.20
2022-08-25T05:29:05.982Z,59.08
2022-08-25T05:31:33.157Z,59.61
2022-08-25T05:34:02.728Z,59.39
2022-08-25T05:36:29.738Z,59.51
2022-08-25T05:38:56.175Z,59.42
2022-08-25T05:41:29.852Z,59.00
2022-08-25T05:43:56.997Z,59.31
2022-08-25T05:46:24.518Z,59.55
2022-08-25T05:48:51.407Z,57.91
2022-08-25T05:51:18.676Z,57.43
2022-08-25T05:53:46.632Z,57.84
2022-08-25T05:56:14.107Z,58.39
2022-08-25T05:58:41.597Z,58.62
2022-08-25T06:01:27.037Z,57.13
2022-08-25T06:03:54.156Z,56.77
2022-08-25T06:06:24.357Z,57.36
2022-08-25T06:08:51.435Z,57.13
2022-08-25T06:11:17.819Z,56.64
2022-08-25T06:13:44.203Z,57.27
2022-08-25T06:16:10.973Z,57.46
2022-08-25T06:18:37.455Z,58.17
2022-08-25T06:21:14.801Z,57.72
2022-08-25T06:23:42.038Z,57.70
2022-08-25T06:26:21.061Z,56.67
2022-08-25T06:28:48.905Z,57.50
2022-08-25T06:31:15.387Z,57.74
2022-08-25T06:33:41.895Z,56.92
2022-08-25T06:36:08.681Z,57.49
2022-08-25T06:38:35.388Z,57.44
2022-08-25T06:41:04.274Z,57.69
2022-08-25T06:43:33.061Z,56.33
2022-08-25T06:46:12.797Z,57.58
2022-08-25T06:48:39.741Z,56.67
2022-08-25T06:51:14.284Z,56.71
2022-08-25T06:53:41.547Z,56.75
2022-08-25T06:56:08.365Z,56.04
2022-08-25T06:58:35.417Z,57.12
2022-08-25T07:01:20.537Z,55.94
2022-08-25T07:03:48.268Z,56.81
2022-08-25T07:06:18.875Z,56.73
2022-08-25T07:08:46.433Z,56.06
2022-08-25T07:11:16.128Z,56.71
2022-08-25T07:13:43.770Z,57.41
2022-08-25T07:16:11.437Z,56.73
2022-08-25T07:18:38.350Z,56.56
2022-08-25T07:21:04.840Z,56.26
2022-08-25T07:23:35.590Z,57.02
2022-08-25T07:29:08.063Z,56.29
2022-08-25T07:31:34.759Z,55.95
2022-08-25T07:34:19.994Z,55.90
2022-08-25T07:36:46.811Z,54.67
2022-08-25T07:39:13.180Z,54.41
2022-08-25T07:41:41.813Z,54.44
2022-08-25T07:44:10.441Z,53.82
2022-08-25T07:46:37.104Z,53.51
2022-08-25T07:49:04.063Z,54.61
2022-08-25T07:51:36.069Z,53.30
2022-08-25T07:54:02.823Z,52.98
2022-08-25T07:56:30.142Z,52.47
2022-08-25T07:58:56.561Z,52.96
2022-08-25T08:01:25.518Z,52.37
2022-08-25T08:03:52.528Z,53.03
2022-08-25T08:06:22.495Z,50.54
2022-08-25T08:08:54.655Z,50.43
2022-08-25T08:11:28.098Z,51.02
2022-08-25T08:13:57.148Z,50.33
2022-08-25T08:16:26.047Z,49.67
2022-08-25T08:18:52.900Z,49.05
2022-08-25T08:21:26.753Z,49.00
2022-08-25T08:23:58.853Z,48.06
2022-08-25T08:26:36.416Z,48.49
2022-08-25T08:29:13.302Z,46.17
2022-08-25T08:31:40.023Z,46.65
2022-08-25T08:34:15.701Z,45.85
2022-08-25T08:36:42.179Z,46.67
2022-08-25T08:39:11.645Z,46.09
2022-08-25T08:42:11.263Z,46.02
2022-08-25T08:44:44.621Z,45.75
2022-08-25T08:47:38.941Z,45.81
2022-08-25T08:50:24.024Z,45.24
2022-08-25T08:53:23.600Z,46.30
2022-08-25T08:55:55.619Z,45.32
2022-08-25T08:58:28.667Z,44.95
2022-08-25T09:00:58.318Z,45.69
2022-08-25T09:03:47.008Z,45.63
2022-08-25T09:06:31.838Z,45.61
2022-08-25T09:09:01.964Z,43.96
2022-08-25T09:11:40.893Z,44.21
2022-08-25T09:14:30.615Z,43.44
2022-08-25T09:17:11.763Z,43.10
2022-08-25T09:19:56.762Z,41.92
2022-08-25T09:23:06.050Z,43.00
2022-08-25T09:26:00.267Z,42.98
2022-08-25T09:28:32.381Z,42.80
2022-08-25T09:31:29.370Z,42.19
2022-08-25T09:33:57.773Z,43.53
2022-08-25T09:36:24.912Z,41.10
2022-08-25T09:38:51.658Z,39.80
2022-08-25T09:41:45.237Z,41.27
2022-08-25T09:44:38.647Z,41.15
2022-08-25T09:47:15.709Z,40.91
2022-08-25T09:50:00.115Z,41.45
2022-08-25T09:52:32.390Z,40.57
2022-08-25T09:55:14.649Z,40.01
2022-08-25T09:57:44.143Z,39.96
2022-08-25T10:00:40.110Z,40.38
2022-08-25T10:03:12.129Z,38.68
2022-08-25T10:05:57.454Z,39.40
2022-08-25T10:08:35.960Z,40.38
2022-08-25T10:11:08.649Z,39.98
2022-08-25T10:13:48.550Z,38.50
2022-08-25T10:16:35.673Z,38.61
2022-08-25T10:19:06.681Z,38.94
2022-08-25T10:21:35.802Z,39.02
2022-08-25T10:24:03.003Z,38.35
2022-08-25T10:26:34.937Z,37.40
2022-08-25T10:29:22.491Z,37.14
2022-08-25T10:32:04.111Z,37.82
2022-08-25T10:34:51.996Z,38.12
2022-08-25T10:37:32.935Z,38.19
2022-08-25T10:40:23.398Z,37.89
2022-08-25T10:43:12.410Z,36.83
2022-08-25T10:45:47.953Z,35.58
2022-08-25T10:48:23.553Z,34.86
2022-08-25T10:51:25.836Z,35.33
2022-08-25T10:54:17.865Z,33.19
2022-08-25T10:57:01.423Z,35.28
2022-08-25T10:59:52.449Z,33.95
2022-08-25T11:02:42.202Z,35.10
2022-08-25T11:05:24.635Z,33.54
2022-08-25T11:07:58.873Z,33.44
2022-08-25T11:10:40.264Z,32.08
2022-08-25T11:13:14.039Z,33.95
2022-08-25T11:16:15.441Z,34.11
2022-08-25T11:18:55.633Z,32.62
2022-08-25T11:21:34.895Z,32.63
2022-08-25T11:24:14.056Z,33.63
2022-08-25T11:26:47.320Z,34.54
2022-08-25T11:29:18.203Z,32.45
2022-08-25T11:31:53.655Z,33.92
2022-08-25T11:34:22.337Z,33.51
2022-08-25T11:36:57.500Z,32.09
2022-08-25T11:39:45.004Z,32.73
2022-08-25T11:42:42.917Z,33.62
2022-08-25T11:45:37.601Z,32.36
2022-08-25T11:48:13.743Z,33.12
2022-08-25T11:51:00.393Z,32.94
2022-08-25T11:53:37.678Z,32.54
2022-08-25T11:56:36.221Z,31.71
2022-08-25T11:59:05.284Z,30.54
2022-08-25T12:01:40.728Z,31.78
2022-08-25T12:04:15.164Z,31.52
2022-08-25T12:07:10.936Z,29.89
2022-08-25T12:09:55.646Z,30.85
2022-08-25T12:12:32.646Z,31.40
2022-08-25T12:15:39.269Z,31.66
2022-08-25T12:18:11.370Z,32.01
2022-08-25T12:20:53.395Z,32.16
2022-08-25T12:23:28.829Z,32.33
2022-08-25T12:26:00.951Z,30.35
2022-08-25T12:29:09.082Z,31.05
2022-08-25T12:31:47.583Z,31.66
2022-08-25T12:34:28.011Z,32.49
2022-08-25T12:36:58.028Z,30.82
2022-08-25T12:39:33.370Z,32.44
2022-08-25T12:42:21.964Z,30.43
2022-08-25T12:45:31.193Z,30.71
2022-08-25T12:48:28.080Z,31.97
2022-08-25T12:51:02.485Z,30.38
2022-08-25T12:53:39.018Z,29.20
2022-08-25T12:56:10.122Z,29.86
2022-08-25T12:59:20.364Z,29.90
2022-08-25T13:01:57.384Z,28.93
2022-08-25T13:04:43.059Z,29.55
2022-08-25T13:07:41.026Z,30.20
2022-08-25T13:10:29.044Z,29.67
2022-08-25T13:13:01.619Z,29.66
2022-08-25T13:15:47.036Z,29.06
2022-08-25T13:18:13.590Z,27.46
2022-08-25T13:20:40.628Z,28.57
2022-08-25T13:23:11.072Z,27.49
2022-08-25T13:25:46.967Z,28.19
2022-08-25T13:28:26.918Z,28.40
2022-08-25T13:31:07.734Z,29.71
2022-08-25T13:33:35.567Z,28.67
2022-08-25T13:36:21.615Z,29.10
2022-08-25T13:38:49.749Z,29.95
2022-08-25T13:41:29.187Z,30.50
2022-08-25T13:43:57.051Z,29.89
2022-08-25T13:46:28.337Z,29.41
2022-08-25T13:49:04.928Z,28.25
2022-08-25T13:51:31.913Z,28.38
2022-08-25T13:54:01.392Z,28.23
2022-08-25T13:56:39.944Z,29.17
2022-08-25T13:59:25.682Z,28.21
2022-08-25T14:01:54.537Z,28.01
2022-08-25T14:04:51.559Z,28.23
2022-08-25T14:07:22.316Z,24.18
2022-08-25T14:09:52.445Z,24.72
2022-08-25T14:12:31.478Z,25.01
2022-08-25T14:15:10.812Z,26.52
2022-08-25T14:17:40.952Z,26.23
2022-08-25T14:20:29.049Z,26.73
2022-08-25T14:22:59.276Z,27.04
2022-08-25T14:25:28.201Z,25.86
2022-08-25T14:28:06.801Z,25.97
2022-08-25T14:30:36.810Z,25.63
2022-08-25T14:33:04.208Z,26.36
2022-08-25T14:35:31.637Z,25.62
2022-08-25T14:37:58.973Z,25.61
2022-08-25T14:40:25.463Z,25.42
2022-08-25T14:42:51.967Z,24.00
2022-08-25T14:45:19.417Z,22.37
2022-08-25T14:47:50.000Z,23.17
2022-08-25T14:50:20.161Z,25.55
2022-08-25T14:52:48.208Z,27.27
2022-08-25T14:55:31.259Z,29.21
2022-08-25T14:57:58.674Z,30.02
2022-08-25T15:00:26.032Z,27.47
2022-08-25T15:02:53.002Z,28.91
2022-08-25T15:05:28.305Z,31.76
2022-08-25T15:08:14.228Z,30.79
2022-08-25T15:10:41.946Z,31.61
2022-08-25T15:13:10.139Z,31.33
2022-08-25T15:15:39.420Z,31.04
2022-08-25T15:18:19.620Z,32.40
2022-08-25T15:20:46.834Z,32.77
2022-08-25T15:23:16.453Z,33.28
2022-08-25T15:25:44.287Z,33.56
2022-08-25T15:28:10.664Z,31.99
2022-08-25T15:30:37.374Z,31.63
2022-08-25T15:33:03.915Z,32.37
2022-08-25T15:35:31.070Z,31.62
2022-08-25T15:37:57.630Z,33.57
2022-08-25T15:40:24.153Z,30.89
2022-08-25T15:42:51.133Z,32.58
2022-08-25T15:45:18.497Z,31.16
2022-08-25T15:47:45.398Z,32.90
2022-08-25T15:50:16.425Z,33.07
2022-08-25T15:52:47.633Z,30.24
2022-08-25T15:55:16.619Z,31.29
2022-08-25T15:57:43.325Z,33.26
2022-08-25T16:00:12.309Z,34.49
2022-08-25T16:02:40.412Z,34.95
2022-08-25T16:05:08.860Z,35.93
2022-08-25T16:07:35.247Z,35.80
2022-08-25T16:10:04.118Z,36.45
2022-08-25T16:12:34.596Z,37.81
2022-08-25T16:15:03.268Z,38.29
2022-08-25T16:17:29.649Z,37.59
2022-08-25T16:19:56.019Z,37.33
2022-08-25T16:22:22.398Z,37.05
2022-08-25T16:24:48.983Z,35.39
2022-08-25T16:27:15.789Z,37.58
2022-08-25T16:29:43.942Z,36.58
2022-08-25T16:32:13.585Z,36.66
2022-08-25T16:34:41.421Z,36.99
2022-08-25T16:37:08.731Z,37.28
2022-08-25T16:39:35.882Z,38.51
2022-08-25T16:42:02.259Z,38.51
2022-08-25T16:44:28.807Z,35.07
2022-08-25T16:46:55.355Z,34.67
2022-08-25T16:49:24.352Z,33.87
2022-08-25T16:51:56.962Z,34.17
2022-08-25T16:54:42.159Z,34.24
2022-08-25T16:57:08.818Z,34.61
2022-08-25T16:59:35.186Z,34.93
2022-08-25T17:02:01.865Z,34.21
2022-08-25T17:04:32.060Z,35.28
2022-08-25T17:06:58.837Z,35.39
2022-08-25T17:09:25.203Z,35.19
2022-08-25T17:11:54.369Z,36.17
2022-08-25T17:14:21.498Z,36.99
2022-08-25T17:16:48.593Z,39.29
2022-08-25T17:19:17.361Z,39.71
2022-08-25T17:21:46.235Z,40.37
2022-08-25T17:24:13.790Z,41.01
2022-08-25T17:26:46.099Z,42.17
2022-08-25T17:29:12.740Z,42.63
2022-08-25T17:31:40.006Z,43.66
2022-08-25T17:34:10.353Z,44.41
2022-08-25T17:36:37.238Z,44.38
2022-08-25T17:39:04.647Z,44.99
2022-08-25T17:41:32.448Z,45.93
2022-08-25T17:43:59.436Z,46.16
2022-08-25T17:46:26.270Z,45.79
2022-08-25T17:48:53.555Z,46.57
2022-08-25T17:51:21.218Z,47.04
2022-08-25T17:53:49.168Z,46.88
2022-08-25T17:56:20.971Z,46.84
2022-08-25T17:58:48.373Z,47.25
2022-08-25T18:01:17.833Z,47.21
2022-08-25T18:03:44.568Z,47.11
2022-08-25T18:06:14.979Z,47.70
2022-08-25T18:08:43.613Z,48.52
2022-08-25T18:11:10.389Z,49.12
2022-08-25T18:13:38.272Z,49.36
2022-08-25T18:16:05.800Z,49.28
2022-08-25T18:18:34.172Z,49.00
2022-08-25T18:21:02.585Z,49.27
2022-08-25T18:23:30.057Z,49.43
2022-08-25T18:26:01.011Z,49.93
2022-08-25T18:28:28.274Z,50.21
2022-08-25T18:30:54.799Z,50.72
2022-08-25T18:33:23.246Z,50.71
2022-08-25T18:35:49.791Z,50.87
2022-08-25T18:38:36.300Z,50.43
2022-08-25T18:41:06.842Z,51.18
2022-08-25T18:43:34.994Z,51.83
2022-08-25T18:46:04.686Z,52.25
2022-08-25T18:48:32.051Z,53.21
2022-08-25T18:51:00.886Z,53.49
2022-08-25T18:53:30.548Z,54.15
2022-08-25T18:56:16.067Z,54.81
2022-08-25T18:58:42.442Z,55.19
2022-08-25T19:01:13.587Z,55.68
2022-08-25T19:03:40.118Z,56.32
2022-08-25T19:06:06.978Z,56.32
2022-08-25T19:08:33.516Z,57.10
2022-08-25T19:10:59.906Z,57.54
2022-08-25T19:13:26.522Z,58.01
2022-08-25T19:15:52.952Z,58.26
2022-08-25T19:18:28.864Z,59.21
2022-08-25T19:20:55.948Z,59.54
2022-08-25T19:23:22.351Z,59.95
2022-08-25T19:25:48.819Z,60.44
2022-08-25T19:28:16.151Z,60.73
2022-08-25T19:30:49.969Z,61.54
2022-08-25T19:33:42.241Z,61.05
2022-08-25T19:36:08.771Z,61.77
2022-08-25T19:38:36.884Z,61.88
2022-08-25T19:41:10.727Z,62.63
2022-08-25T19:43:56.757Z,62.59
2022-08-25T19:46:33.320Z,62.57
2022-08-25T19:49:13.644Z,62.69
2022-08-25T19:51:44.577Z,62.24
2022-08-25T19:54:14.137Z,61.72
2022-08-25T19:56:43.512Z,62.57
2022-08-25T19:59:22.464Z,62.76
2022-08-25T20:01:50.080Z,62.82
2022-08-25T20:04:16.613Z,63.84
2022-08-25T20:06:43.284Z,63.96
2022-08-25T20:09:21.085Z,63.90
2022-08-25T20:12:02.146Z,65.18
2022-08-25T20:14:28.978Z,65.33
2022-08-25T20:16:55.357Z,65.57
2022-08-25T20:19:21.726Z,66.17
2022-08-25T20:21:48.108Z,66.39
2022-08-25T20:24:32.717Z,66.02
2022-08-25T20:27:00.160Z,66.80
2022-08-25T20:29:26.564Z,67.37
2022-08-25T20:31:53.016Z,67.72
2022-08-25T20:34:19.633Z,67.94
2022-08-25T20:36:49.862Z,68.81
2022-08-25T20:39:17.779Z,69.22
2022-08-25T20:41:45.286Z,68.56
2022-08-25T20:44:15.534Z,68.86
2022-08-25T20:46:41.896Z,68.99
2022-08-25T20:49:09.045Z,68.72
2022-08-25T20:51:35.566Z,68.72
2022-08-25T20:54:02.126Z,69.17
2022-08-25T20:56:30.450Z,69.64
2022-08-25T20:58:56.882Z,68.82
2022-08-25T21:01:47.597Z,69.20
2022-08-25T21:04:17.785Z,69.23
2022-08-25T21:06:46.165Z,69.33
2022-08-25T21:09:16.031Z,69.20
2022-08-25T21:11:43.152Z,69.55
2022-08-25T21:14:10.270Z,69.55
2022-08-25T21:16:38.301Z,70.68
2022-08-25T21:19:05.951Z,69.82
2022-08-25T21:21:37.727Z,70.47
2022-08-25T21:24:05.268Z,70.49
2022-08-25T21:26:35.528Z,70.18
2022-08-25T21:29:04.303Z,70.77
2022-08-25T21:31:32.535Z,70.16
2022-08-25T21:33:59.935Z,70.98
2022-08-25T21:36:29.286Z,71.28
2022-08-25T21:38:58.156Z,70.95
2022-08-25T21:41:29.184Z,72.04
2022-08-25T21:43:56.808Z,72.49
2022-08-25T21:46:26.289Z,71.62
2022-08-25T21:48:58.784Z,71.70
2022-08-25T21:51:32.339Z,72.52
2022-08-25T21:54:10.157Z,72.81
2022-08-25T21:56:38.530Z,72.19
2022-08-25T21:59:07.255Z,72.35
2022-08-25T22:01:34.462Z,72.86
2022-08-25T22:04:02.062Z,72.57
2022-08-25T22:06:29.285Z,73.03
2022-08-25T22:08:56.055Z,72.08
2022-08-25T22:11:22.949Z,72.33
2022-08-25T22:13:51.075Z,72.52
2022-08-25T22:16:21.954Z,71.75
2022-08-25T22:18:50.149Z,72.36
2022-08-25T22:21:22.455Z,71.64
2022-08-25T22:23:50.219Z,72.86
2022-08-25T22:26:17.273Z,73.29
2022-08-25T22:28:48.508Z,72.32
2022-08-25T22:31:20.659Z,73.16
2022-08-25T22:33:48.438Z,72.87
2022-08-25T22:36:19.706Z,72.69
2022-08-25T22:38:47.429Z,73.01
2022-08-25T22:41:19.163Z,73.60
2022-08-25T22:43:51.069Z,73.23
2022-08-25T22:46:19.220Z,74.15
2022-08-25T22:48:46.170Z,73.78
2022-08-25T22:51:15.594Z,74.22
2022-08-25T22:53:44.355Z,74.30
2022-08-25T22:56:13.424Z,74.41
2022-08-25T22:58:51.642Z,74.82
2022-08-25T23:03:46.043Z,73.37
2022-08-25T23:06:24.806Z,73.45
2022-08-25T23:08:53.572Z,74.00
2022-08-25T23:11:21.768Z,74.01
2022-08-25T23:13:48.881Z,73.81
2022-08-25T23:16:16.963Z,73.60
2022-08-25T23:18:44.884Z,74.08
2022-08-25T23:21:35.186Z,74.11
2022-08-25T23:24:08.730Z,74.23
2022-08-25T23:26:38.061Z,74.22
2022-08-25T23:29:17.538Z,74.10
2022-08-25T23:31:44.637Z,73.77
2022-08-25T23:34:11.295Z,73.82
2022-08-25T23:36:37.816Z,74.49
2022-08-25T23:39:05.431Z,74.27
2022-08-25T23:41:34.218Z,74.02
2022-08-25T23:44:05.224Z,74.25
2022-08-25T23:46:33.007Z,73.94
2022-08-25T23:48:59.833Z,74.22
2022-08-25T23:51:29.412Z,74.13
2022-08-25T23:53:57.075Z,75.16
2022-08-25T23:56:25.892Z,74.23
2022-08-25T23:58:52.303Z,74.32
